createdAt,value
2023-03-22T00:02:10.799Z,96044.50
2023-03-22T00:04:37.537Z,96040.41
2023-03-22T00:07:04.139Z,96045.97
2023-03-22T00:09:30.984Z,96045.44
2023-03-22T00:11:57.583Z,96050.16
2023-03-22T00:14:24.219Z,96047.94
2023-03-22T00:16:50.872Z,96047.31
2023-03-22T00:19:17.626Z,96036.38
2023-03-22T00:21:44.875Z,96039.91
2023-03-22T00:24:11.694Z,96035.66
2023-03-22T00:26:38.368Z,96042.19
2023-03-22T00:29:05.187Z,96037.63
2023-03-22T00:31:32.105Z,96033.63
2023-03-22T00:33:58.836Z,96028.88
2023-03-22T00:36:25.707Z,96021.16
2023-03-22T00:38:52.579Z,96019.75
2023-03-22T00:41:23.363Z,96020.53
2023-03-22T00:43:51.184Z,96017.00
2023-03-22T00:46:20.936Z,96004.22
2023-03-22T00:48:48.083Z,96004.72
2023-03-22T00:51:15.638Z,96002.97
2023-03-22T00:53:43.529Z,96005.34
2023-03-22T00:56:14.312Z,96001.03
2023-03-22T00:58:42.222Z,96004.63
2023-03-22T01:01:09.742Z,96003.44
2023-03-22T01:03:36.659Z,96011.56
2023-03-22T01:06:03.675Z,96001.13
2023-03-22T01:08:33.545Z,95998.06
2023-03-22T01:11:01.274Z,96004.56
2023-03-22T01:13:29.051Z,95997.44
2023-03-22T01:15:56.131Z,95999.19
2023-03-22T01:18:22.958Z,95996.06
2023-03-22T01:20:49.640Z,96002.47
2023-03-22T01:23:16.251Z,96000.63
2023-03-22T01:25:43.106Z,95994.09
2023-03-22T01:28:09.973Z,95994.63
2023-03-22T01:30:39.786Z,95987.63
2023-03-22T01:33:07.742Z,95984.78
2023-03-22T01:35:36.088Z,95988.00
2023-03-22T01:38:03.081Z,95989.56
2023-03-22T01:40:29.763Z,95989.56
2023-03-22T01:42:56.460Z,95981.63
2023-03-22T01:45:23.025Z,95987.91
2023-03-22T01:47:57.831Z,95981.09
2023-03-22T01:50:25.997Z,95979.50
2023-03-22T01:52:57.065Z,95979.97
2023-03-22T01:55:26.210Z,95977.72
2023-03-22T01:57:54.182Z,95970.91
2023-03-22T02:00:21.330Z,95971.75
2023-03-22T02:02:51.488Z,95970.66
2023-03-22T02:05:19.569Z,95963.03
2023-03-22T02:07:46.204Z,95968.56
2023-03-22T02:10:18.539Z,95959.41
2023-03-22T02:13:06.425Z,95962.56
2023-03-22T02:15:49.943Z,95970.72
2023-03-22T02:18:21.849Z,95969.03
2023-03-22T02:20:57.635Z,95968.72
2023-03-22T02:23:33.233Z,95967.41
2023-03-22T02:26:02.845Z,95960.19
2023-03-22T02:28:37.358Z,95955.19
2023-03-22T02:31:41.203Z,95951.41
2023-03-22T02:34:32.396Z,95961.41
2023-03-22T02:37:20.446Z,95954.47
2023-03-22T02:40:16.145Z,95951.34
2023-03-22T02:42:57.786Z,95957.44
2023-03-22T02:45:29.664Z,95950.91
2023-03-22T02:48:05.719Z,95958.03
2023-03-22T02:50:44.647Z,95956.25
2023-03-22T02:53:16.946Z,95949.47
2023-03-22T02:56:08.390Z,95952.50
2023-03-22T02:58:48.190Z,95944.81
2023-03-22T03:01:47.761Z,95953.72
2023-03-22T03:04:19.644Z,95953.78
2023-03-22T03:06:49.370Z,95953.13
2023-03-22T03:09:18.272Z,95959.00
2023-03-22T03:11:50.820Z,95965.53
2023-03-22T03:14:27.940Z,95953.94
2023-03-22T03:17:11.171Z,95953.25
2023-03-22T03:19:45.917Z,95940.09
2023-03-22T03:22:29.918Z,95948.97
2023-03-22T03:25:05.774Z,95948.66
2023-03-22T03:27:38.380Z,95952.09
2023-03-22T03:30:19.155Z,95952.88
2023-03-22T03:32:54.695Z,95953.00
2023-03-22T03:35:27.444Z,95948.41
2023-03-22T03:38:16.247Z,95954.84
2023-03-22T03:40:49.530Z,95956.38
2023-03-22T03:43:16.487Z,95950.13
2023-03-22T03:45:43.251Z,95952.22
2023-03-22T03:48:20.112Z,95951.09
2023-03-22T03:50:50.365Z,95951.53
2023-03-22T03:53:17.036Z,95957.81
2023-03-22T03:55:43.982Z,95959.31
2023-03-22T03:58:10.691Z,95954.69
2023-03-22T04:00:38.573Z,95958.06
2023-03-22T04:03:06.405Z,95962.22
2023-03-22T04:05:33.378Z,95956.09
2023-03-22T04:08:00.094Z,95953.69
2023-03-22T04:10:26.733Z,95955.66
2023-03-22T04:12:53.400Z,95952.47
2023-03-22T04:15:20.238Z,95959.00
2023-03-22T04:17:46.871Z,95958.72
2023-03-22T04:20:13.938Z,95960.09
2023-03-22T04:22:41.633Z,95961.88
2023-03-22T04:25:11.887Z,95964.16
2023-03-22T04:27:40.826Z,95957.41
2023-03-22T04:30:13.154Z,95962.06
2023-03-22T04:32:39.903Z,95964.63
2023-03-22T04:35:06.736Z,95963.41
2023-03-22T04:37:33.769Z,95961.84
2023-03-22T04:40:00.379Z,95968.22
2023-03-22T04:42:27.053Z,95962.59
2023-03-22T04:44:53.675Z,95960.13
2023-03-22T04:47:20.402Z,95955.06
2023-03-22T04:49:47.002Z,95964.41
2023-03-22T04:52:13.634Z,95961.03
2023-03-22T04:54:40.319Z,95960.22
2023-03-22T04:57:07.091Z,95971.16
2023-03-22T04:59:33.930Z,95967.69
2023-03-22T05:02:01.071Z,95967.06
2023-03-22T05:04:28.126Z,95962.22
2023-03-22T05:06:54.719Z,95960.66
2023-03-22T05:09:23.525Z,95967.59
2023-03-22T05:11:50.658Z,95966.59
2023-03-22T05:14:17.350Z,95969.97
2023-03-22T05:16:44.009Z,95966.78
2023-03-22T05:19:16.995Z,95969.47
2023-03-22T05:21:44.230Z,95969.59
2023-03-22T05:24:11.994Z,95974.16
2023-03-22T05:26:42.312Z,95975.25
2023-03-22T05:29:11.053Z,95979.06
2023-03-22T05:31:38.035Z,95984.25
2023-03-22T05:34:04.761Z,95974.72
2023-03-22T05:36:31.458Z,95978.31
2023-03-22T05:38:58.288Z,95972.34
2023-03-22T05:41:25.017Z,95963.81
2023-03-22T05:43:51.901Z,95974.56
2023-03-22T05:46:18.560Z,95970.91
2023-03-22T05:48:45.380Z,95975.38
2023-03-22T05:51:17.710Z,95980.75
2023-03-22T05:53:48.310Z,95974.09
2023-03-22T05:56:15.621Z,95980.34
2023-03-22T05:58:42.653Z,95985.03
2023-03-22T06:01:11.697Z,95978.88
2023-03-22T06:03:39.285Z,95977.75
2023-03-22T06:06:10.609Z,95979.78
2023-03-22T06:08:38.578Z,95978.88
2023-03-22T06:11:06.073Z,95979.81
2023-03-22T06:13:33.678Z,95981.53
2023-03-22T06:16:02.260Z,95975.38
2023-03-22T06:18:29.699Z,95985.13
2023-03-22T06:20:56.534Z,95985.63
2023-03-22T06:23:23.182Z,95983.22
2023-03-22T06:25:50.307Z,95981.91
2023-03-22T06:28:17.078Z,95987.53
2023-03-22T06:30:43.826Z,95978.53
2023-03-22T06:33:10.542Z,95973.53
2023-03-22T06:35:37.220Z,95970.13
2023-03-22T06:38:03.883Z,95973.53
2023-03-22T06:40:30.695Z,95974.19
2023-03-22T06:42:57.349Z,95978.78
2023-03-22T06:45:23.977Z,95984.28
2023-03-22T06:47:50.743Z,95981.63
2023-03-22T06:50:17.648Z,95979.25
2023-03-22T06:52:44.277Z,95978.91
2023-03-22T06:55:10.936Z,95975.75
2023-03-22T06:57:37.599Z,95976.91
2023-03-22T07:00:05.378Z,95976.72
2023-03-22T07:02:32.153Z,95973.75
2023-03-22T07:04:58.767Z,95979.22
2023-03-22T07:07:25.531Z,95971.31
2023-03-22T07:09:53.353Z,95969.75
2023-03-22T07:12:19.969Z,95975.75
2023-03-22T07:14:46.758Z,95967.53
2023-03-22T07:17:14.271Z,95960.91
2023-03-22T07:19:42.712Z,95968.38
2023-03-22T07:22:09.516Z,95967.34
2023-03-22T07:24:40.379Z,95976.91
2023-03-22T07:27:11.329Z,95975.91
2023-03-22T07:29:38.003Z,95977.63
2023-03-22T07:32:04.904Z,95970.56
2023-03-22T07:34:31.692Z,95980.09
2023-03-22T07:36:58.849Z,95973.16
2023-03-22T07:39:25.676Z,95976.84
2023-03-22T07:41:52.692Z,95966.72
2023-03-22T07:44:19.300Z,95978.78
2023-03-22T07:46:46.019Z,95972.22
2023-03-22T07:49:13.162Z,95971.56
2023-03-22T07:51:39.833Z,95970.13
2023-03-22T07:54:07.852Z,95966.97
2023-03-22T07:56:35.236Z,95972.47
2023-03-22T07:59:02.267Z,95964.75
2023-03-22T08:01:29.112Z,95962.09
2023-03-22T08:03:55.746Z,95955.91
2023-03-22T08:06:22.404Z,95960.66
2023-03-22T08:08:49.071Z,95952.41
2023-03-22T08:11:15.944Z,95958.34
2023-03-22T08:13:42.612Z,95962.31
2023-03-22T08:16:09.280Z,95956.97
2023-03-22T08:18:36.212Z,95955.56
2023-03-22T08:21:02.936Z,95965.47
2023-03-22T08:23:40.906Z,95952.41
2023-03-22T08:26:09.583Z,95959.44
2023-03-22T08:28:36.361Z,95959.44
2023-03-22T08:31:10.434Z,95964.34
2023-03-22T08:33:37.069Z,95960.00
2023-03-22T08:36:08.736Z,95961.81
2023-03-22T08:38:35.676Z,95955.22
2023-03-22T08:41:03.356Z,95948.94
2023-03-22T08:43:30.004Z,95954.34
2023-03-22T08:45:57.465Z,95953.66
2023-03-22T08:48:25.056Z,95948.22
2023-03-22T08:50:51.769Z,95944.97
2023-03-22T08:53:18.413Z,95946.66
2023-03-22T08:55:45.127Z,95946.00
2023-03-22T08:58:13.293Z,95933.09
2023-03-22T09:00:48.610Z,95938.97
2023-03-22T09:03:16.502Z,95936.28
2023-03-22T09:05:43.992Z,95931.63
2023-03-22T09:08:18.473Z,95934.41
2023-03-22T09:10:52.790Z,95931.25
2023-03-22T09:13:20.124Z,95931.97
2023-03-22T09:15:47.334Z,95928.09
2023-03-22T09:18:14.488Z,95917.88
2023-03-22T09:20:41.406Z,95917.00
2023-03-22T09:23:08.244Z,95918.38
2023-03-22T09:25:34.955Z,95921.84
2023-03-22T09:28:02.344Z,95919.13
2023-03-22T09:30:29.085Z,95918.66
2023-03-22T09:32:55.832Z,95914.38
2023-03-22T09:35:22.710Z,95913.09
2023-03-22T09:37:49.569Z,95905.31
2023-03-22T09:40:17.774Z,95893.56
2023-03-22T09:42:49.084Z,95896.25
2023-03-22T09:45:24.978Z,95897.97
2023-03-22T09:47:54.842Z,95902.63
2023-03-22T09:50:25.450Z,95896.75
2023-03-22T09:52:53.334Z,95897.38
2023-03-22T09:55:41.294Z,95896.75
2023-03-22T09:58:20.189Z,95887.94
2023-03-22T10:01:01.263Z,95884.03
2023-03-22T10:03:36.821Z,95888.00
2023-03-22T10:06:12.243Z,95887.22
2023-03-22T10:08:51.119Z,95882.06
2023-03-22T10:11:20.565Z,95874.16
2023-03-22T10:14:23.551Z,95870.97
2023-03-22T10:16:55.329Z,95868.06
2023-03-22T10:19:29.053Z,95864.00
2023-03-22T10:21:56.559Z,95855.13
2023-03-22T10:24:30.059Z,95848.31
2023-03-22T10:26:57.264Z,95850.91
2023-03-22T10:29:30.206Z,95844.00
2023-03-22T10:32:03.068Z,95850.44
2023-03-22T10:34:33.740Z,95848.16
2023-03-22T10:37:04.222Z,95840.84
2023-03-22T10:39:40.114Z,95850.03
2023-03-22T10:42:15.497Z,95846.56
2023-03-22T10:45:12.235Z,95841.59
2023-03-22T10:47:53.371Z,95834.25
2023-03-22T10:50:28.793Z,95834.72
2023-03-22T10:53:14.333Z,95837.59
2023-03-22T10:55:43.114Z,95831.09
2023-03-22T10:58:21.248Z,95836.16
2023-03-22T11:00:59.576Z,95832.91
2023-03-22T11:03:40.434Z,95835.63
2023-03-22T11:06:12.199Z,95828.44
2023-03-22T11:08:41.082Z,95832.56
2023-03-22T11:11:19.646Z,95822.75
2023-03-22T11:14:27.953Z,95828.94
2023-03-22T11:17:06.415Z,95825.72
2023-03-22T11:19:37.173Z,95810.16
2023-03-22T11:22:07.685Z,95814.81
2023-03-22T11:24:35.369Z,95809.72
2023-03-22T11:27:14.966Z,95802.69
2023-03-22T11:29:47.171Z,95807.22
2023-03-22T11:32:32.892Z,95803.41
2023-03-22T11:35:15.992Z,95798.66
2023-03-22T11:37:50.440Z,95797.91
2023-03-22T11:40:28.235Z,95797.06
2023-03-22T11:42:57.286Z,95789.09
2023-03-22T11:45:32.456Z,95783.25
2023-03-22T11:48:07.244Z,95777.28
2023-03-22T11:50:38.412Z,95771.72
2023-03-22T11:53:12.089Z,95771.28
2023-03-22T11:55:39.374Z,95774.47
2023-03-22T11:58:06.575Z,95770.59
2023-03-22T12:00:37.787Z,95760.91
2023-03-22T12:03:15.833Z,95757.03
2023-03-22T12:05:48.983Z,95763.97
2023-03-22T12:08:25.661Z,95759.13
2023-03-22T12:11:05.024Z,95756.53
2023-03-22T12:14:09.712Z,95751.44
2023-03-22T12:16:45.778Z,95751.19
2023-03-22T12:19:33.504Z,95754.19
2023-03-22T12:22:01.137Z,95744.00
2023-03-22T12:24:32.385Z,95746.97
2023-03-22T12:27:13.111Z,95743.44
2023-03-22T12:29:47.427Z,95738.16
2023-03-22T12:32:24.342Z,95735.69
2023-03-22T12:34:55.076Z,95733.97
2023-03-22T12:37:33.526Z,95727.78
2023-03-22T12:40:08.617Z,95714.66
2023-03-22T12:42:52.626Z,95713.38
2023-03-22T12:45:26.968Z,95707.28
2023-03-22T12:48:04.959Z,95715.78
2023-03-22T12:50:38.939Z,95709.63
2023-03-22T12:53:06.627Z,95701.28
2023-03-22T12:55:36.949Z,95700.22
2023-03-22T12:58:10.837Z,95701.50
2023-03-22T13:00:45.850Z,95688.09
2023-03-22T13:03:15.518Z,95687.91
2023-03-22T13:05:42.510Z,95689.00
2023-03-22T13:08:10.324Z,95689.75
2023-03-22T13:10:38.790Z,95688.00
2023-03-22T13:13:14.904Z,95679.41
2023-03-22T13:16:09.203Z,95675.56
2023-03-22T13:18:35.924Z,95670.50
2023-03-22T13:21:26.885Z,95673.81
2023-03-22T13:24:05.576Z,95667.44
2023-03-22T13:26:49.814Z,95657.13
2023-03-22T13:29:38.101Z,95659.47
2023-03-22T13:32:34.320Z,95658.44
2023-03-22T13:35:01.591Z,95669.56
2023-03-22T13:37:37.389Z,95660.38
2023-03-22T13:40:31.584Z,95650.84
2023-03-22T13:43:12.266Z,95654.06
2023-03-22T13:46:10.632Z,95647.03
2023-03-22T13:48:50.727Z,95644.34
2023-03-22T13:51:25.396Z,95643.41
2023-03-22T13:54:01.030Z,95633.22
2023-03-22T13:56:57.030Z,95637.53
2023-03-22T13:59:27.279Z,95629.59
2023-03-22T14:02:16.019Z,95625.69
2023-03-22T14:04:50.336Z,95628.66
2023-03-22T14:07:31.546Z,95622.03
2023-03-22T14:10:03.745Z,95624.22
2023-03-22T14:12:51.459Z,95617.84
2023-03-22T14:15:23.203Z,95616.44
2023-03-22T14:18:05.986Z,95607.66
2023-03-22T14:20:35.227Z,95623.97
